createdAt,value
2023-03-12T00:00:55.351Z,8.30
2023-03-12T00:03:35.725Z,4.10
2023-03-12T00:06:10.551Z,3.20
2023-03-12T00:08:38.771Z,2.60
2023-03-12T00:11:12.285Z,3.60
2023-03-12T00:13:40.450Z,2.70
2023-03-12T00:16:14.213Z,3.60
2023-03-12T00:18:42.848Z,4.40
2023-03-12T00:21:11.138Z,3.30
2023-03-12T00:23:38.411Z,13.70
2023-03-12T00:26:12.035Z,2.60
2023-03-12T00:28:39.358Z,4.80
2023-03-12T00:31:19.863Z,3.00
2023-03-12T00:33:50.117Z,3.80
2023-03-12T00:36:18.695Z,1.70
2023-03-12T00:38:46.206Z,2.40
2023-03-12T00:41:13.452Z,2.20
2023-03-12T00:43:40.709Z,2.00
2023-03-12T00:46:07.973Z,2.00
2023-03-12T00:48:35.317Z,2.10
2023-03-12T00:51:02.636Z,1.70
2023-03-12T00:53:29.812Z,2.50
2023-03-12T00:55:57.026Z,2.00
2023-03-12T00:58:24.473Z,1.90
2023-03-12T01:00:51.899Z,2.30
2023-03-12T01:03:19.400Z,2.20
2023-03-12T01:05:47.246Z,1.90
2023-03-12T01:08:14.599Z,2.10
2023-03-12T01:10:43.399Z,3.20
2023-03-12T01:13:10.600Z,2.50
2023-03-12T01:15:38.105Z,3.50
2023-03-12T01:18:05.735Z,1.90
2023-03-12T01:20:33.281Z,3.90
2023-03-12T01:23:00.517Z,3.90
2023-03-12T01:25:27.695Z,4.20
2023-03-12T01:27:54.865Z,3.90
2023-03-12T01:30:21.968Z,3.50
2023-03-12T01:32:49.093Z,2.70
2023-03-12T01:35:16.837Z,3.10
2023-03-12T01:37:44.058Z,2.20
2023-03-12T01:40:19.924Z,2.40
2023-03-12T01:42:57.441Z,2.00
2023-03-12T01:45:52.540Z,2.50
2023-03-12T01:48:20.477Z,3.90
2023-03-12T01:50:47.732Z,2.80
2023-03-12T01:53:15.047Z,3.50
2023-03-12T01:55:42.381Z,3.90
2023-03-12T01:58:09.965Z,5.90
2023-03-12T02:00:37.317Z,3.60
2023-03-12T02:03:07.946Z,3.40
2023-03-12T02:05:39.258Z,3.40
2023-03-12T02:08:06.571Z,4.50
2023-03-12T02:10:58.717Z,4.50
2023-03-12T02:13:32.145Z,2.60
2023-03-12T02:15:59.616Z,1.60
2023-03-12T02:18:28.056Z,4.20
2023-03-12T02:21:24.243Z,1.60
2023-03-12T02:24:08.457Z,1.80
2023-03-12T02:26:37.585Z,1.20
2023-03-12T02:29:05.586Z,1.40
2023-03-12T02:31:43.179Z,1.80
2023-03-12T02:34:10.937Z,1.00
2023-03-12T02:36:38.369Z,2.20
2023-03-12T02:39:06.178Z,0.80
2023-03-12T02:41:37.869Z,0.50
2023-03-12T02:44:11.360Z,0.20
2023-03-12T02:46:42.174Z,0.20
2023-03-12T02:49:12.752Z,0.40
2023-03-12T02:51:41.462Z,0.30
2023-03-12T02:54:09.221Z,0.30
2023-03-12T02:56:37.049Z,0.20
2023-03-12T02:59:04.688Z,0.40
2023-03-12T03:01:34.473Z,1.50
2023-03-12T03:04:03.050Z,1.20
2023-03-12T03:06:31.192Z,0.50
2023-03-12T03:08:59.484Z,1.20
2023-03-12T03:11:26.982Z,0.20
2023-03-12T03:13:55.287Z,0.70
2023-03-12T03:16:23.042Z,0.80
2023-03-12T03:18:50.878Z,0.20
2023-03-12T03:21:18.578Z,0.40
2023-03-12T03:23:48.537Z,0.60
2023-03-12T03:26:17.013Z,0.30
2023-03-12T03:31:10.896Z,0.50
2023-03-12T03:33:39.488Z,0.30
2023-03-12T03:36:07.958Z,0.80
2023-03-12T03:38:35.374Z,0.90
2023-03-12T03:41:03.482Z,0.80
2023-03-12T03:43:31.146Z,0.70
2023-03-12T03:46:00.516Z,1.60
2023-03-12T03:48:28.150Z,3.90
2023-03-12T03:50:55.373Z,3.60
2023-03-12T03:53:22.751Z,2.50
2023-03-12T03:55:49.979Z,1.50
2023-03-12T03:58:17.178Z,2.10
2023-03-12T04:00:45.886Z,2.30
2023-03-12T04:03:14.187Z,3.30
2023-03-12T04:05:45.504Z,2.50
2023-03-12T04:08:13.940Z,3.30
2023-03-12T04:10:41.440Z,3.40
2023-03-12T04:13:08.696Z,11.20
2023-03-12T04:15:35.926Z,38.40
2023-03-12T04:18:03.198Z,19.40
2023-03-12T04:20:30.486Z,43.90
2023-03-12T04:22:58.718Z,51.20
2023-03-12T04:25:25.913Z,81.50
2023-03-12T04:27:53.121Z,105.20
2023-03-12T04:30:20.433Z,66.00
2023-03-12T04:32:47.616Z,43.70
2023-03-12T04:35:14.997Z,69.70
2023-03-12T04:37:42.294Z,24.60
2023-03-12T04:40:10.944Z,14.00
2023-03-12T04:42:38.168Z,8.70
2023-03-12T04:45:06.611Z,14.30
2023-03-12T04:47:34.221Z,8.50
2023-03-12T04:50:01.431Z,15.40
2023-03-12T04:52:28.715Z,19.10
2023-03-12T04:54:56.323Z,13.60
2023-03-12T04:57:23.493Z,8.00
2023-03-12T04:59:50.690Z,12.40
2023-03-12T05:02:18.055Z,10.60
2023-03-12T05:04:45.283Z,11.40
2023-03-12T05:07:12.598Z,9.10
2023-03-12T05:09:39.764Z,14.70
2023-03-12T05:12:07.188Z,8.00
2023-03-12T05:14:34.474Z,10.10
2023-03-12T05:17:01.591Z,17.20
2023-03-12T05:19:28.772Z,13.70
2023-03-12T05:21:55.997Z,4.50
2023-03-12T05:24:23.264Z,5.20
2023-03-12T05:26:50.507Z,11.90
2023-03-12T05:29:17.933Z,10.00
2023-03-12T05:31:45.367Z,4.50
2023-03-12T05:34:13.911Z,12.40
2023-03-12T05:36:41.171Z,10.50
2023-03-12T05:39:08.458Z,12.70
2023-03-12T05:41:35.754Z,29.20
2023-03-12T05:44:03.068Z,13.50
2023-03-12T05:46:30.273Z,20.10
2023-03-12T05:48:57.769Z,16.60
2023-03-12T05:51:24.955Z,22.20
2023-03-12T05:53:52.244Z,14.80
2023-03-12T05:56:19.509Z,17.00
2023-03-12T05:58:48.958Z,21.20
2023-03-12T06:01:20.266Z,19.30
2023-03-12T06:03:47.838Z,11.80
2023-03-12T06:06:15.805Z,19.40
2023-03-12T06:08:43.616Z,17.80
2023-03-12T06:11:11.860Z,18.40
2023-03-12T06:13:39.760Z,21.30
2023-03-12T06:16:16.562Z,17.20
2023-03-12T06:18:43.774Z,14.70
2023-03-12T06:21:24.146Z,17.30
2023-03-12T06:23:52.506Z,24.40
2023-03-12T06:26:21.966Z,25.30
2023-03-12T06:28:51.347Z,14.90
2023-03-12T06:31:19.794Z,46.10
2023-03-12T06:33:47.484Z,25.60
2023-03-12T06:36:15.464Z,16.00
2023-03-12T06:38:42.901Z,6.10
2023-03-12T06:41:15.580Z,12.50
2023-03-12T06:43:44.299Z,4.70
2023-03-12T06:46:17.584Z,5.20
2023-03-12T06:48:46.697Z,11.50
2023-03-12T06:51:16.753Z,15.50
2023-03-12T06:53:45.216Z,17.80
2023-03-12T06:56:13.346Z,39.50
2023-03-12T06:58:40.778Z,35.40
2023-03-12T07:01:08.963Z,19.20
2023-03-12T07:03:36.258Z,12.60
2023-03-12T07:06:03.793Z,45.40
2023-03-12T07:08:31.389Z,19.40
2023-03-12T07:11:01.823Z,14.20
2023-03-12T07:13:30.149Z,25.40
2023-03-12T07:15:57.714Z,20.00
2023-03-12T07:18:24.992Z,10.60
2023-03-12T07:20:53.306Z,13.30
2023-03-12T07:23:20.866Z,16.20
2023-03-12T07:25:48.277Z,13.30
2023-03-12T07:28:16.497Z,18.60
2023-03-12T07:30:50.336Z,20.60
2023-03-12T07:33:22.123Z,8.00
2023-03-12T07:35:51.677Z,7.60
2023-03-12T07:38:19.546Z,6.10
2023-03-12T07:40:51.682Z,6.50
2023-03-12T07:43:20.494Z,3.80
2023-03-12T07:45:49.966Z,3.00
2023-03-12T07:48:19.958Z,4.40
2023-03-12T07:50:47.664Z,3.80
2023-03-12T07:53:14.986Z,7.60
2023-03-12T07:55:44.989Z,13.10
2023-03-12T07:58:13.288Z,14.20
2023-03-12T08:00:40.539Z,13.10
2023-03-12T08:03:08.421Z,10.60
2023-03-12T08:05:35.936Z,4.80
2023-03-12T08:08:03.202Z,9.80
2023-03-12T08:10:30.538Z,9.20
2023-03-12T08:12:57.898Z,7.40
2023-03-12T08:15:25.563Z,8.10
2023-03-12T08:17:52.871Z,5.20
2023-03-12T08:20:20.197Z,5.80
2023-03-12T08:22:47.330Z,4.90
2023-03-12T08:25:14.905Z,9.10
2023-03-12T08:27:42.100Z,6.90
2023-03-12T08:30:09.983Z,5.80
2023-03-12T08:32:37.276Z,5.10
2023-03-12T08:35:05.853Z,33.80
2023-03-12T08:37:33.126Z,32.40
2023-03-12T08:40:00.590Z,11.30
2023-03-12T08:42:28.137Z,41.00
2023-03-12T08:44:55.382Z,26.00
2023-03-12T08:47:22.557Z,12.20
2023-03-12T08:49:49.873Z,9.60
2023-03-12T08:52:17.124Z,21.40
2023-03-12T08:54:44.293Z,7.10
2023-03-12T08:57:11.483Z,3.80
2023-03-12T08:59:38.899Z,3.50
2023-03-12T09:02:07.152Z,3.50
2023-03-12T09:04:34.407Z,4.90
2023-03-12T09:07:01.833Z,2.90
2023-03-12T09:09:29.100Z,3.10
2023-03-12T09:11:57.072Z,3.70
2023-03-12T09:17:11.465Z,0.70
2023-03-12T09:19:40.061Z,1.80
2023-03-12T09:22:07.579Z,1.40
2023-03-12T09:24:35.045Z,0.90
2023-03-12T09:27:04.438Z,1.60
2023-03-12T09:29:31.991Z,4.20
2023-03-12T09:31:59.592Z,7.30
2023-03-12T09:34:26.715Z,19.40
2023-03-12T09:36:53.863Z,6.60
2023-03-12T09:39:21.607Z,29.00
2023-03-12T09:41:49.773Z,17.60
2023-03-12T09:44:43.467Z,9.70
2023-03-12T09:47:28.900Z,3.80
2023-03-12T09:50:04.328Z,12.20
2023-03-12T09:52:40.488Z,8.10
2023-03-12T09:55:20.063Z,4.50
2023-03-12T09:57:50.640Z,8.20
2023-03-12T10:00:24.056Z,13.60
2023-03-12T10:03:00.446Z,10.70
2023-03-12T10:05:34.157Z,7.00
2023-03-12T10:08:27.387Z,9.20
2023-03-12T10:11:22.143Z,4.70
2023-03-12T10:14:08.723Z,3.00
2023-03-12T10:17:02.508Z,11.40
2023-03-12T10:19:51.492Z,11.90
2023-03-12T10:22:37.025Z,19.20
2023-03-12T10:25:24.240Z,6.70
2023-03-12T10:27:51.548Z,6.70
2023-03-12T10:30:24.546Z,5.40
2023-03-12T10:32:59.722Z,3.20
2023-03-12T10:35:30.650Z,10.20
2023-03-12T10:38:03.406Z,9.20
2023-03-12T10:40:34.435Z,10.30
2023-03-12T10:43:03.043Z,11.90
2023-03-12T10:46:00.374Z,12.60
2023-03-12T10:48:28.049Z,8.30
2023-03-12T10:51:08.653Z,6.90
2023-03-12T10:53:42.993Z,4.90
2023-03-12T10:56:16.085Z,7.70
2023-03-12T10:58:45.747Z,5.90
2023-03-12T11:01:16.427Z,3.60
2023-03-12T11:03:44.341Z,1.90
2023-03-12T11:06:30.153Z,4.90
2023-03-12T11:09:15.775Z,3.50
2023-03-12T11:11:47.663Z,9.40
2023-03-12T11:14:19.750Z,6.40
2023-03-12T11:16:46.926Z,9.70
2023-03-12T11:19:26.444Z,7.00
2023-03-12T11:22:02.382Z,8.70
2023-03-12T11:24:30.323Z,10.10
2023-03-12T11:27:46.202Z,4.30
2023-03-12T11:30:22.198Z,1.80
2023-03-12T11:32:50.814Z,1.20
2023-03-12T11:35:26.956Z,2.80
2023-03-12T11:38:08.600Z,3.90
2023-03-12T11:40:43.884Z,2.30
2023-03-12T11:43:43.681Z,3.00
2023-03-12T11:46:29.728Z,2.90
2023-03-12T11:49:12.076Z,2.30
2023-03-12T11:51:53.903Z,3.10
2023-03-12T11:54:23.967Z,3.90
2023-03-12T11:56:57.372Z,3.30
2023-03-12T11:59:36.851Z,3.10
2023-03-12T12:02:41.943Z,2.30
2023-03-12T12:05:46.618Z,22.00
2023-03-12T12:08:50.537Z,13.40
2023-03-12T12:11:41.953Z,3.60
2023-03-12T12:14:21.606Z,5.10
2023-03-12T12:16:54.669Z,2.90
2023-03-12T12:19:24.738Z,3.50
2023-03-12T12:22:03.927Z,2.60
2023-03-12T12:24:53.306Z,5.50
2023-03-12T12:27:22.181Z,11.00
2023-03-12T12:30:04.741Z,11.70
2023-03-12T12:32:43.976Z,4.20
2023-03-12T12:35:37.657Z,3.90
2023-03-12T12:38:15.000Z,8.40
2023-03-12T12:40:48.073Z,1.10
2023-03-12T12:43:28.508Z,0.90
2023-03-12T12:46:00.672Z,3.20
2023-03-12T12:48:42.305Z,3.80
2023-03-12T12:51:10.718Z,1.20
2023-03-12T12:53:54.467Z,0.90
2023-03-12T12:56:31.322Z,1.20
2023-03-12T12:59:26.413Z,1.50
2023-03-12T13:01:56.063Z,1.20
2023-03-12T13:04:32.021Z,2.10
2023-03-12T13:07:14.535Z,3.80
2023-03-12T13:09:53.080Z,10.80
2023-03-12T13:12:30.884Z,2.70
2023-03-12T13:14:59.847Z,1.30
2023-03-12T13:17:34.073Z,10.10
2023-03-12T13:20:02.056Z,6.80
2023-03-12T13:23:06.871Z,0.90
2023-03-12T13:25:45.879Z,0.90
2023-03-12T13:28:32.703Z,0.70
2023-03-12T13:31:01.681Z,0.70
2023-03-12T13:33:48.762Z,0.60
2023-03-12T13:36:23.718Z,0.80
2023-03-12T13:39:01.369Z,10.50
2023-03-12T13:41:40.028Z,1.60
2023-03-12T13:44:27.522Z,0.70
2023-03-12T13:47:19.366Z,11.00
2023-03-12T13:50:01.660Z,7.50
2023-03-12T13:52:32.669Z,4.50
2023-03-12T13:55:16.255Z,0.70
2023-03-12T13:57:46.444Z,0.50
2023-03-12T14:00:21.869Z,0.40
2023-03-12T14:02:58.411Z,0.30
2023-03-12T14:05:27.497Z,0.20
2023-03-12T14:08:22.005Z,0.40
2023-03-12T14:11:04.248Z,0.30
2023-03-12T14:13:54.704Z,0.50
2023-03-12T14:16:42.225Z,0.30
2023-03-12T14:19:13.494Z,0.40
2023-03-12T14:21:44.728Z,1.30
2023-03-12T14:24:37.701Z,0.50
2023-03-12T14:27:06.974Z,1.10
2023-03-12T14:29:46.972Z,4.40
2023-03-12T14:32:24.109Z,1.40
2023-03-12T14:34:57.649Z,8.50
2023-03-12T14:37:32.375Z,3.20
2023-03-12T14:40:20.173Z,1.60
2023-03-12T14:42:48.088Z,1.60
2023-03-12T14:45:19.069Z,1.10
2023-03-12T14:47:55.389Z,0.80
2023-03-12T14:50:27.052Z,0.90
2023-03-12T14:52:56.134Z,0.60
2023-03-12T14:55:26.219Z,0.40
2023-03-12T14:58:14.502Z,0.90
2023-03-12T15:00:43.746Z,0.50
2023-03-12T15:03:16.365Z,0.50
2023-03-12T15:05:48.424Z,0.70
2023-03-12T15:08:17.181Z,1.00
2023-03-12T15:10:53.385Z,0.40
2023-03-12T15:13:22.382Z,0.70
2023-03-12T15:15:52.328Z,0.60
2023-03-12T15:18:24.759Z,0.50
2023-03-12T15:20:53.824Z,0.50
2023-03-12T15:23:23.760Z,0.40
2023-03-12T15:26:15.942Z,0.40
2023-03-12T15:28:43.257Z,0.30
2023-03-12T15:31:17.157Z,0.30
2023-03-12T15:33:45.125Z,0.30
2023-03-12T15:36:15.294Z,0.50
2023-03-12T15:38:51.455Z,0.30
2023-03-12T15:41:48.922Z,0.40
2023-03-12T15:44:46.869Z,0.30
2023-03-12T15:47:25.667Z,0.40
2023-03-12T15:50:31.897Z,0.50
2023-03-12T15:53:25.749Z,0.40
2023-03-12T15:56:06.829Z,0.40
2023-03-12T15:58:40.106Z,1.00
2023-03-12T16:01:18.776Z,0.60
2023-03-12T16:03:46.405Z,0.40
2023-03-12T16:06:17.309Z,0.60
2023-03-12T16:08:52.036Z,0.50
2023-03-12T16:11:22.216Z,0.70
2023-03-12T16:13:52.274Z,1.20
2023-03-12T16:16:19.770Z,0.90
2023-03-12T16:18:46.997Z,1.60
2023-03-12T16:21:14.300Z,1.40
2023-03-12T16:23:41.463Z,0.80
2023-03-12T16:26:08.668Z,1.00
2023-03-12T16:28:36.595Z,1.10
2023-03-12T16:31:03.929Z,0.90
2023-03-12T16:33:31.112Z,0.70
2023-03-12T16:35:59.172Z,0.90
2023-03-12T16:38:26.360Z,1.30
2023-03-12T16:40:54.294Z,0.60
2023-03-12T16:43:24.040Z,0.70
2023-03-12T16:45:53.488Z,0.80
2023-03-12T16:48:24.518Z,0.90
2023-03-12T16:50:54.687Z,0.80
2023-03-12T16:53:23.268Z,0.90
2023-03-12T16:55:59.955Z,1.40
2023-03-12T16:58:28.702Z,1.10
2023-03-12T17:00:56.808Z,1.20
2023-03-12T17:03:35.664Z,1.80
2023-03-12T17:06:05.391Z,2.00
2023-03-12T17:08:32.674Z,1.80
2023-03-12T17:11:00.220Z,1.20
2023-03-12T17:13:29.028Z,0.90
2023-03-12T17:15:56.874Z,0.50
2023-03-12T17:18:24.573Z,0.90
2023-03-12T17:20:52.086Z,0.70
2023-03-12T17:23:19.908Z,3.10
2023-03-12T17:25:47.203Z,1.20
2023-03-12T17:28:15.595Z,0.80
2023-03-12T17:30:43.870Z,0.40
2023-03-12T17:33:14.017Z,0.30
2023-03-12T17:35:41.856Z,0.20
2023-03-12T17:38:10.117Z,0.10
2023-03-12T17:40:44.389Z,0.20
2023-03-12T17:43:11.754Z,0.10
2023-03-12T17:45:39.068Z,0.20
2023-03-12T17:48:06.483Z,0.30
2023-03-12T17:50:34.179Z,0.40
2023-03-12T17:53:01.502Z,0.60
2023-03-12T17:55:28.908Z,0.30
2023-03-12T17:57:56.323Z,0.20
2023-03-12T18:00:23.637Z,0.10
2023-03-12T18:02:51.058Z,0.30
2023-03-12T18:05:18.371Z,0.30
2023-03-12T18:07:47.525Z,0.30
2023-03-12T18:10:15.326Z,0.20
2023-03-12T18:12:42.606Z,0.40
2023-03-12T18:15:15.234Z,0.40
2023-03-12T18:17:44.950Z,0.70
2023-03-12T18:20:17.907Z,0.10
2023-03-12T18:22:49.008Z,0.20
2023-03-12T18:25:16.486Z,0.40
2023-03-12T18:27:43.805Z,0.20
2023-03-12T18:30:14.538Z,0.20
2023-03-12T18:32:42.147Z,0.30
2023-03-12T18:35:10.580Z,0.40
2023-03-12T18:37:37.962Z,0.30
2023-03-12T18:40:05.755Z,0.30
2023-03-12T18:42:33.125Z,0.30
2023-03-12T18:45:00.448Z,1.30
2023-03-12T18:47:27.593Z,0.30
2023-03-12T18:49:55.987Z,0.50
2023-03-12T18:52:23.267Z,0.20
2023-03-12T18:54:50.415Z,0.30
2023-03-12T18:57:17.590Z,0.20
2023-03-12T18:59:46.392Z,0.30
2023-03-12T19:02:13.602Z,0.30
2023-03-12T19:04:40.818Z,0.40
2023-03-12T19:07:08.608Z,0.40
2023-03-12T19:09:35.819Z,0.30
2023-03-12T19:12:03.589Z,0.20
2023-03-12T19:14:31.521Z,0.20
2023-03-12T19:16:58.710Z,0.30
2023-03-12T19:19:25.912Z,0.40
2023-03-12T19:21:53.071Z,0.40
2023-03-12T19:24:20.264Z,0.30
2023-03-12T19:26:47.467Z,0.20
2023-03-12T19:29:16.557Z,0.50
2023-03-12T19:31:43.773Z,0.40
2023-03-12T19:34:11.009Z,0.50
2023-03-12T19:36:38.208Z,0.60
2023-03-12T19:39:15.241Z,1.00
2023-03-12T19:41:48.000Z,2.00
2023-03-12T19:44:15.322Z,1.40
2023-03-12T19:46:43.398Z,1.00
2023-03-12T19:49:11.067Z,1.30
2023-03-12T19:51:40.313Z,0.80
2023-03-12T19:54:08.197Z,1.10
2023-03-12T19:56:35.747Z,1.30
2023-03-12T19:59:02.976Z,1.20
2023-03-12T20:01:30.525Z,0.70
2023-03-12T20:03:59.910Z,0.90
2023-03-12T20:06:27.345Z,0.80
2023-03-12T20:08:54.583Z,2.00
2023-03-12T20:11:21.742Z,1.80
2023-03-12T20:13:48.928Z,1.40
2023-03-12T20:16:17.099Z,1.20
2023-03-12T20:18:44.766Z,0.50
2023-03-12T20:21:11.891Z,0.90
2023-03-12T20:23:39.142Z,1.10
2023-03-12T20:26:06.375Z,0.90
2023-03-12T20:28:33.624Z,0.50
2023-03-12T20:31:11.658Z,1.10
2023-03-12T20:33:38.996Z,1.00
2023-03-12T20:36:11.001Z,0.80
2023-03-12T20:38:38.440Z,0.80
2023-03-12T20:41:10.128Z,1.10
2023-03-12T20:43:37.262Z,1.00
2023-03-12T20:46:04.632Z,1.50
2023-03-12T20:48:31.963Z,1.30
2023-03-12T20:50:59.137Z,1.50
2023-03-12T20:53:27.009Z,1.70
2023-03-12T20:55:54.123Z,1.80
2023-03-12T20:58:23.156Z,1.90
2023-03-12T21:00:50.968Z,2.20
2023-03-12T21:03:19.434Z,2.10
2023-03-12T21:05:55.011Z,2.50
2023-03-12T21:08:22.997Z,2.60
2023-03-12T21:10:50.755Z,2.50
2023-03-12T21:13:19.550Z,2.40
2023-03-12T21:15:47.733Z,3.30
2023-03-12T21:18:16.132Z,2.80
2023-03-12T21:20:43.744Z,2.80
2023-03-12T21:23:11.417Z,2.80
2023-03-12T21:25:40.803Z,2.60
2023-03-12T21:28:09.295Z,3.00
2023-03-12T21:30:37.510Z,3.00
2023-03-12T21:33:05.789Z,2.60
2023-03-12T21:35:33.076Z,2.50
2023-03-12T21:38:00.401Z,2.10
2023-03-12T21:40:27.684Z,2.20
2023-03-12T21:42:54.869Z,2.50
2023-03-12T21:45:22.264Z,1.80
2023-03-12T21:47:49.458Z,2.10
2023-03-12T21:50:16.928Z,2.00
2023-03-12T21:52:48.996Z,2.10
2023-03-12T21:55:17.110Z,2.70
2023-03-12T21:57:45.394Z,2.50
2023-03-12T22:00:14.273Z,2.20
2023-03-12T22:02:42.643Z,2.50
2023-03-12T22:05:10.799Z,2.80
2023-03-12T22:07:38.884Z,3.20
2023-03-12T22:10:07.964Z,2.80
2023-03-12T22:12:35.096Z,2.70
2023-03-12T22:15:02.304Z,2.30
2023-03-12T22:17:29.924Z,2.40
2023-03-12T22:19:57.094Z,2.70
2023-03-12T22:22:24.280Z,2.00
2023-03-12T22:24:51.421Z,2.50
2023-03-12T22:27:18.668Z,2.70
2023-03-12T22:29:45.883Z,3.10
2023-03-12T22:32:13.108Z,3.60
2023-03-12T22:34:40.259Z,2.80
2023-03-12T22:37:07.434Z,3.50
2023-03-12T22:39:34.667Z,3.00
2023-03-12T22:42:01.827Z,2.80
2023-03-12T22:44:29.032Z,3.70
2023-03-12T22:46:56.312Z,3.30
2023-03-12T22:49:23.604Z,3.70
2023-03-12T22:51:51.070Z,3.70
2023-03-12T22:54:18.285Z,3.90
2023-03-12T22:56:45.440Z,3.70
2023-03-12T22:59:12.798Z,3.40
2023-03-12T23:01:40.092Z,3.70
2023-03-12T23:04:07.244Z,3.70
2023-03-12T23:06:34.507Z,3.70
2023-03-12T23:09:01.730Z,4.20
2023-03-12T23:11:29.869Z,5.00
2023-03-12T23:13:57.224Z,4.50
2023-03-12T23:16:26.232Z,5.40
2023-03-12T23:18:53.554Z,6.20
2023-03-12T23:21:22.908Z,5.80
2023-03-12T23:23:50.513Z,5.80
2023-03-12T23:26:24.734Z,6.10
2023-03-12T23:28:54.222Z,6.40
2023-03-12T23:31:22.534Z,6.00
2023-03-12T23:33:50.006Z,7.50
2023-03-12T23:36:19.241Z,6.20
2023-03-12T23:38:47.697Z,7.80
2023-03-12T23:41:19.106Z,7.80
2023-03-12T23:43:47.855Z,7.10
2023-03-12T23:46:19.006Z,7.30
2023-03-12T23:48:47.010Z,8.30
2023-03-12T23:51:15.633Z,7.60
2023-03-12T23:53:44.751Z,7.00
2023-03-12T23:56:15.456Z,8.40
2023-03-12T23:58:43.802Z,6.90
